Flores, Guatemala
Current Conditions -  °F | °C
As of 3:00 PM on Saturday 22 Nov 2014 (Local Time) from MGMM Reporting Station
Scattered Clouds Scattered Clouds  
Wind Chill: 81°   Ceiling: Unl
Heat Index: 85°   Visibility: 6mi
Dew Point: 73°   Wind: 0mph
Humidity: 79%   Direction: NA
Pressure: 29.94"   Gusts: NA
Location:  16.93°N, 89.89°W
Report Text: MGMM 222100Z 00000KT 9999 SCT020 SCT200 27/23 Q1014 A2994
Loading
Personal Weather Stations






























Interactive Weather Map New forecast layout! Learn more

10-Day Weather Forecast

Advertisements
Track Severe Weather on mobile